sensor_id;sensor_type;location;lat;lon;timestamp;pressure;altitude;pressure_sealevel;temperature;humidity
41062;BME280;26812;42.662;23.352;2023-11-19T00:00:06;94828.66;;;4.34;63.76
41062;BME280;26812;42.662;23.352;2023-11-19T00:02:36;94843.75;;;4.10;64.27
41062;BME280;26812;42.662;23.352;2023-11-19T00:05:02;94846.75;;;4.03;65.26
41062;BME280;26812;42.662;23.352;2023-11-19T00:07:27;94857.63;;;4.12;64.44
41062;BME280;26812;42.662;23.352;2023-11-19T00:09:52;94848.50;;;4.18;64.58
41062;BME280;26812;42.662;23.352;2023-11-19T00:12:20;94846.34;;;4.20;64.01
41062;BME280;26812;42.662;23.352;2023-11-19T00:14:46;94846.09;;;4.16;63.95
41062;BME280;26812;42.662;23.352;2023-11-19T00:17:11;94856.47;;;4.23;64.25
41062;BME280;26812;42.662;23.352;2023-11-19T00:19:37;94849.97;;;4.00;64.49
41062;BME280;26812;42.662;23.352;2023-11-19T00:22:02;94847.38;;;3.85;65.47
41062;BME280;26812;42.662;23.352;2023-11-19T00:24:29;94857.19;;;3.94;65.26
41062;BME280;26812;42.662;23.352;2023-11-19T00:26:55;94828.66;;;3.51;65.95
41062;BME280;26812;42.662;23.352;2023-11-19T00:29:21;94866.59;;;3.82;65.84
41062;BME280;26812;42.662;23.352;2023-11-19T00:31:47;94863.44;;;3.74;65.89
41062;BME280;26812;42.662;23.352;2023-11-19T00:34:12;94857.19;;;3.94;65.32
41062;BME280;26812;42.662;23.352;2023-11-19T00:36:38;94865.63;;;4.12;65.45
41062;BME280;26812;42.662;23.352;2023-11-19T00:39:04;94852.44;;;3.86;65.00
41062;BME280;26812;42.662;23.352;2023-11-19T00:41:30;94872.66;;;3.92;65.50
41062;BME280;26812;42.662;23.352;2023-11-19T00:43:56;94850.09;;;3.80;64.47
41062;BME280;26812;42.662;23.352;2023-11-19T00:46:21;94861.91;;;4.08;64.47
41062;BME280;26812;42.662;23.352;2023-11-19T00:48:46;94879.44;;;4.19;64.06
41062;BME280;26812;42.662;23.352;2023-11-19T00:51:12;94858.75;;;4.00;64.18
41062;BME280;26812;42.662;23.352;2023-11-19T00:53:38;94871.38;;;4.29;63.93
41062;BME280;26812;42.662;23.352;2023-11-19T00:56:03;94876.44;;;4.25;64.83
41062;BME280;26812;42.662;23.352;2023-11-19T00:58:29;94862.22;;;4.40;63.89
41062;BME280;26812;42.662;23.352;2023-11-19T01:00:54;94867.41;;;4.21;63.83
41062;BME280;26812;42.662;23.352;2023-11-19T01:03:21;94863.03;;;4.01;64.75
41062;BME280;26812;42.662;23.352;2023-11-19T01:05:53;94869.84;;;4.18;65.02
41062;BME280;26812;42.662;23.352;2023-11-19T01:08:19;94875.25;;;4.08;64.73
41062;BME280;26812;42.662;23.352;2023-11-19T01:10:44;94876.47;;;4.20;64.71
41062;BME280;26812;42.662;23.352;2023-11-19T01:13:09;94869.38;;;4.05;64.85
41062;BME280;26812;42.662;23.352;2023-11-19T01:15:35;94878.94;;;3.67;65.83
41062;BME280;26812;42.662;23.352;2023-11-19T01:18:00;94878.91;;;3.72;66.05
41062;BME280;26812;42.662;23.352;2023-11-19T01:20:30;94872.38;;;3.94;65.89
41062;BME280;26812;42.662;23.352;2023-11-19T01:22:55;94823.44;;;3.80;64.53
41062;BME280;26812;42.662;23.352;2023-11-19T01:25:21;94851.69;;;3.81;65.64
41062;BME280;26812;42.662;23.352;2023-11-19T01:27:46;94843.22;;;3.68;66.05
41062;BME280;26812;42.662;23.352;2023-11-19T01:30:12;94852.81;;;3.64;66.16
41062;BME280;26812;42.662;23.352;2023-11-19T01:32:38;94869.47;;;3.90;65.49
41062;BME280;26812;42.662;23.352;2023-11-19T01:35:05;94880.59;;;4.02;64.75
41062;BME280;26812;42.662;23.352;2023-11-19T01:37:31;94852.19;;;4.22;64.90
41062;BME280;26812;42.662;23.352;2023-11-19T01:39:57;94868.03;;;4.08;64.38
41062;BME280;26812;42.662;23.352;2023-11-19T01:42:22;94875.47;;;4.11;64.74
41062;BME280;26812;42.662;23.352;2023-11-19T01:44:58;94880.16;;;3.85;64.59
41062;BME280;26812;42.662;23.352;2023-11-19T01:47:25;94878.22;;;4.01;64.38
41062;BME280;26812;42.662;23.352;2023-11-19T01:49:51;94888.47;;;3.79;64.79
41062;BME280;26812;42.662;23.352;2023-11-19T01:52:17;94891.44;;;4.16;64.42
41062;BME280;26812;42.662;23.352;2023-11-19T01:54:43;94892.91;;;3.98;64.07
41062;BME280;26812;42.662;23.352;2023-11-19T01:57:09;94898.00;;;3.90;63.40
41062;BME280;26812;42.662;23.352;2023-11-19T01:59:34;94894.63;;;3.74;64.09
41062;BME280;26812;42.662;23.352;2023-11-19T02:02:00;94886.72;;;3.54;64.77
41062;BME280;26812;42.662;23.352;2023-11-19T02:04:25;94910.13;;;3.57;64.49
41062;BME280;26812;42.662;23.352;2023-11-19T02:06:54;94907.69;;;3.70;64.98
41062;BME280;26812;42.662;23.352;2023-11-19T02:09:21;94886.66;;;3.69;63.65
41062;BME280;26812;42.662;23.352;2023-11-19T02:11:47;94896.41;;;3.89;63.80
41062;BME280;26812;42.662;23.352;2023-11-19T02:14:17;94878.28;;;3.86;63.37
41062;BME280;26812;42.662;23.352;2023-11-19T02:16:43;94894.41;;;4.10;63.46
41062;BME280;26812;42.662;23.352;2023-11-19T02:19:08;94858.84;;;3.85;62.60
41062;BME280;26812;42.662;23.352;2023-11-19T02:21:36;94861.38;;;3.56;63.05
41062;BME280;26812;42.662;23.352;2023-11-19T02:24:06;94893.34;;;4.11;62.75
41062;BME280;26812;42.662;23.352;2023-11-19T02:26:58;94891.13;;;4.23;61.93
41062;BME280;26812;42.662;23.352;2023-11-19T02:29:27;94886.06;;;3.77;62.42
41062;BME280;26812;42.662;23.352;2023-11-19T02:31:52;94895.41;;;3.74;64.49
41062;BME280;26812;42.662;23.352;2023-11-19T02:34:20;94864.38;;;3.94;62.03
41062;BME280;26812;42.662;23.352;2023-11-19T02:36:47;94849.81;;;3.81;62.02
41062;BME280;26812;42.662;23.352;2023-11-19T02:39:12;94841.88;;;3.71;62.25
41062;BME280;26812;42.662;23.352;2023-11-19T02:41:38;94862.56;;;3.84;64.39
41062;BME280;26812;42.662;23.352;2023-11-19T02:44:05;94885.78;;;3.79;63.30
41062;BME280;26812;42.662;23.352;2023-11-19T02:46:31;94865.88;;;3.61;64.04
41062;BME280;26812;42.662;23.352;2023-11-19T02:48:57;94858.94;;;3.65;63.28
41062;BME280;26812;42.662;23.352;2023-11-19T02:51:22;94865.97;;;3.46;63.61
41062;BME280;26812;42.662;23.352;2023-11-19T02:53:48;94874.72;;;3.51;63.71
41062;BME280;26812;42.662;23.352;2023-11-19T02:56:13;94880.31;;;3.55;64.43
41062;BME280;26812;42.662;23.352;2023-11-19T02:58:50;94882.72;;;3.51;64.01
41062;BME280;26812;42.662;23.352;2023-11-19T03:01:21;94866.19;;;3.54;63.84
41062;BME280;26812;42.662;23.352;2023-11-19T03:03:56;94871.19;;;3.71;63.71
41062;BME280;26812;42.662;23.352;2023-11-19T03:06:23;94863.25;;;3.56;63.91
41062;BME280;26812;42.662;23.352;2023-11-19T03:08:48;94873.38;;;3.54;63.05
41062;BME280;26812;42.662;23.352;2023-11-19T03:11:14;94876.03;;;3.59;63.76
41062;BME280;26812;42.662;23.352;2023-11-19T03:13:40;94872.41;;;3.39;64.12
41062;BME280;26812;42.662;23.352;2023-11-19T03:16:05;94879.59;;;3.29;64.31
41062;BME280;26812;42.662;23.352;2023-11-19T03:18:31;94868.19;;;3.23;63.82
41062;BME280;26812;42.662;23.352;2023-11-19T03:20:56;94878.81;;;3.28;64.45
41062;BME280;26812;42.662;23.352;2023-11-19T03:23:24;94869.44;;;3.46;64.45
41062;BME280;26812;42.662;23.352;2023-11-19T03:25:49;94873.41;;;3.49;64.48
41062;BME280;26812;42.662;23.352;2023-11-19T03:28:15;94880.84;;;3.52;64.27
41062;BME280;26812;42.662;23.352;2023-11-19T03:30:40;94885.59;;;3.65;63.46
41062;BME280;26812;42.662;23.352;2023-11-19T03:33:05;94876.50;;;3.66;63.89
41062;BME280;26812;42.662;23.352;2023-11-19T03:35:31;94882.75;;;3.46;63.73
41062;BME280;26812;42.662;23.352;2023-11-19T03:37:56;94888.03;;;3.56;64.09
41062;BME280;26812;42.662;23.352;2023-11-19T03:40:21;94889.09;;;3.55;63.82
41062;BME280;26812;42.662;23.352;2023-11-19T03:42:47;94886.44;;;3.55;63.88
41062;BME280;26812;42.662;23.352;2023-11-19T03:45:13;94893.31;;;3.61;64.46
41062;BME280;26812;42.662;23.352;2023-11-19T03:47:39;94883.25;;;3.53;63.72
41062;BME280;26812;42.662;23.352;2023-11-19T03:50:06;94913.06;;;3.55;63.43
41062;BME280;26812;42.662;23.352;2023-11-19T03:52:32;94917.31;;;3.61;63.79
41062;BME280;26812;42.662;23.352;2023-11-19T03:54:58;94915.69;;;3.70;64.00
41062;BME280;26812;42.662;23.352;2023-11-19T03:57:24;94909.00;;;3.73;63.71
41062;BME280;26812;42.662;23.352;2023-11-19T03:59:49;94915.91;;;3.79;63.48
41062;BME280;26812;42.662;23.352;2023-11-19T04:02:16;94923.41;;;4.21;63.74
41062;BME280;26812;42.662;23.352;2023-11-19T04:04:41;94903.13;;;3.76;63.15
41062;BME280;26812;42.662;23.352;2023-11-19T04:07:07;94922.72;;;4.05;63.68
41062;BME280;26812;42.662;23.352;2023-11-19T04:09:32;94926.00;;;3.87;63.33
41062;BME280;26812;42.662;23.352;2023-11-19T04:11:58;94917.84;;;3.68;63.36
41062;BME280;26812;42.662;23.352;2023-11-19T04:14:24;94925.13;;;3.37;64.16
41062;BME280;26812;42.662;23.352;2023-11-19T04:16:50;94920.38;;;3.14;65.58
41062;BME280;26812;42.662;23.352;2023-11-19T04:19:16;94919.81;;;3.37;64.63
41062;BME280;26812;42.662;23.352;2023-11-19T04:21:42;94914.19;;;3.34;64.21
41062;BME280;26812;42.662;23.352;2023-11-19T04:24:08;94914.63;;;3.66;64.23
41062;BME280;26812;42.662;23.352;2023-11-19T04:26:33;94911.75;;;3.53;64.01
41062;BME280;26812;42.662;23.352;2023-11-19T04:28:59;94903.81;;;3.37;64.32
41062;BME280;26812;42.662;23.352;2023-11-19T04:31:31;94917.16;;;3.27;64.40
41062;BME280;26812;42.662;23.352;2023-11-19T04:33:56;94929.81;;;3.61;64.17
41062;BME280;26812;42.662;23.352;2023-11-19T04:36:22;94925.53;;;3.75;64.09
41062;BME280;26812;42.662;23.352;2023-11-19T04:38:49;94922.56;;;3.82;63.47
41062;BME280;26812;42.662;23.352;2023-11-19T04:41:15;94935.50;;;4.09;62.88
41062;BME280;26812;42.662;23.352;2023-11-19T04:43:41;94949.97;;;3.87;62.81
41062;BME280;26812;42.662;23.352;2023-11-19T04:46:06;94903.59;;;3.88;62.09
41062;BME280;26812;42.662;23.352;2023-11-19T04:48:32;94923.19;;;4.13;61.93
41062;BME280;26812;42.662;23.352;2023-11-19T04:50:57;94941.09;;;4.07;61.13
41062;BME280;26812;42.662;23.352;2023-11-19T04:53:23;94939.69;;;3.60;62.92
41062;BME280;26812;42.662;23.352;2023-11-19T04:55:48;94943.13;;;3.66;62.67
41062;BME280;26812;42.662;23.352;2023-11-19T04:58:14;94929.75;;;3.81;62.34
41062;BME280;26812;42.662;23.352;2023-11-19T05:00:39;94937.59;;;3.52;63.39
41062;BME280;26812;42.662;23.352;2023-11-19T05:03:04;94946.66;;;3.46;63.41
41062;BME280;26812;42.662;23.352;2023-11-19T05:05:30;94962.00;;;3.80;62.66
41062;BME280;26812;42.662;23.352;2023-11-19T05:07:55;94944.19;;;3.65;61.93
41062;BME280;26812;42.662;23.352;2023-11-19T05:10:21;94968.47;;;3.58;62.26
41062;BME280;26812;42.662;23.352;2023-11-19T05:12:46;94989.75;;;3.63;63.44
41062;BME280;26812;42.662;23.352;2023-11-19T05:15:12;94983.69;;;3.48;63.22
41062;BME280;26812;42.662;23.352;2023-11-19T05:17:37;94982.84;;;3.67;62.82
41062;BME280;26812;42.662;23.352;2023-11-19T05:20:04;94982.38;;;3.40;62.89
41062;BME280;26812;42.662;23.352;2023-11-19T05:22:30;94973.84;;;3.43;63.11
41062;BME280;26812;42.662;23.352;2023-11-19T05:24:55;94987.19;;;3.28;63.77
41062;BME280;26812;42.662;23.352;2023-11-19T05:27:21;94996.47;;;3.51;62.69
41062;BME280;26812;42.662;23.352;2023-11-19T05:29:47;94969.56;;;3.52;62.75
41062;BME280;26812;42.662;23.352;2023-11-19T05:32:12;94968.19;;;3.60;62.63
41062;BME280;26812;42.662;23.352;2023-11-19T05:34:37;94964.50;;;3.51;62.25
41062;BME280;26812;42.662;23.352;2023-11-19T05:37:03;94974.88;;;3.57;62.00
41062;BME280;26812;42.662;23.352;2023-11-19T05:39:30;94971.44;;;3.52;62.44
41062;BME280;26812;42.662;23.352;2023-11-19T05:41:56;94973.22;;;3.66;62.39
41062;BME280;26812;42.662;23.352;2023-11-19T05:44:21;94966.66;;;3.33;62.92
41062;BME280;26812;42.662;23.352;2023-11-19T05:46:46;94981.09;;;3.17;63.61
41062;BME280;26812;42.662;23.352;2023-11-19T05:49:12;94998.66;;;3.18;64.18
41062;BME280;26812;42.662;23.352;2023-11-19T05:51:39;94984.75;;;3.47;64.30
41062;BME280;26812;42.662;23.352;2023-11-19T05:54:07;94982.72;;;3.93;62.90
41062;BME280;26812;42.662;23.352;2023-11-19T05:56:32;94972.91;;;3.83;61.33
41062;BME280;26812;42.662;23.352;2023-11-19T05:58:58;94964.31;;;3.22;63.41
41062;BME280;26812;42.662;23.352;2023-11-19T06:01:26;94981.31;;;3.36;62.96
41062;BME280;26812;42.662;23.352;2023-11-19T06:03:52;94998.59;;;3.49;64.20
41062;BME280;26812;42.662;23.352;2023-11-19T06:06:18;94999.94;;;3.46;64.10
41062;BME280;26812;42.662;23.352;2023-11-19T06:08:44;95004.59;;;3.90;63.31
41062;BME280;26812;42.662;23.352;2023-11-19T06:11:10;95000.06;;;3.90;61.52
41062;BME280;26812;42.662;23.352;2023-11-19T06:13:43;95002.63;;;3.41;62.75
41062;BME280;26812;42.662;23.352;2023-11-19T06:16:09;95020.97;;;3.53;63.28
41062;BME280;26812;42.662;23.352;2023-11-19T06:18:34;94961.91;;;3.25;63.40
41062;BME280;26812;42.662;23.352;2023-11-19T06:21:01;94998.34;;;3.35;63.57
41062;BME280;26812;42.662;23.352;2023-11-19T06:23:26;94989.31;;;3.41;63.07
41062;BME280;26812;42.662;23.352;2023-11-19T06:25:51;94993.00;;;3.55;62.54
41062;BME280;26812;42.662;23.352;2023-11-19T06:28:17;94993.31;;;3.38;62.97
41062;BME280;26812;42.662;23.352;2023-11-19T06:30:42;95003.13;;;3.48;62.69
41062;BME280;26812;42.662;23.352;2023-11-19T06:33:08;95008.22;;;3.24;63.43
41062;BME280;26812;42.662;23.352;2023-11-19T06:35:34;94986.41;;;3.17;64.16
41062;BME280;26812;42.662;23.352;2023-11-19T06:38:04;94985.06;;;3.20;64.44
41062;BME280;26812;42.662;23.352;2023-11-19T06:40:31;95004.72;;;3.54;63.26
41062;BME280;26812;42.662;23.352;2023-11-19T06:42:56;95001.19;;;3.79;63.17
41062;BME280;26812;42.662;23.352;2023-11-19T06:45:22;94989.41;;;3.90;62.63
41062;BME280;26812;42.662;23.352;2023-11-19T06:47:47;95011.22;;;4.08;62.28
41062;BME280;26812;42.662;23.352;2023-11-19T06:50:13;95010.78;;;3.80;61.92
41062;BME280;26812;42.662;23.352;2023-11-19T06:52:40;95005.44;;;3.80;61.78
41062;BME280;26812;42.662;23.352;2023-11-19T06:55:05;94998.59;;;3.54;61.97
41062;BME280;26812;42.662;23.352;2023-11-19T06:57:31;95006.28;;;3.60;62.08
41062;BME280;26812;42.662;23.352;2023-11-19T06:59:58;95030.22;;;3.81;61.50
41062;BME280;26812;42.662;23.352;2023-11-19T07:02:24;95026.91;;;4.14;62.14
41062;BME280;26812;42.662;23.352;2023-11-19T07:04:50;95031.28;;;4.49;60.00
41062;BME280;26812;42.662;23.352;2023-11-19T07:07:15;95022.06;;;4.21;59.78
41062;BME280;26812;42.662;23.352;2023-11-19T07:09:41;95029.66;;;3.89;61.09
41062;BME280;26812;42.662;23.352;2023-11-19T07:12:06;95035.97;;;4.18;60.70
41062;BME280;26812;42.662;23.352;2023-11-19T07:14:32;95026.19;;;3.93;60.50
41062;BME280;26812;42.662;23.352;2023-11-19T07:16:57;95007.34;;;3.64;60.63
41062;BME280;26812;42.662;23.352;2023-11-19T07:19:23;95038.03;;;3.41;61.89
41062;BME280;26812;42.662;23.352;2023-11-19T07:21:48;95037.25;;;3.10;61.99
41062;BME280;26812;42.662;23.352;2023-11-19T07:24:14;95057.75;;;3.46;61.66
41062;BME280;26812;42.662;23.352;2023-11-19T07:26:43;95014.59;;;3.43;61.02
41062;BME280;26812;42.662;23.352;2023-11-19T07:29:09;95028.38;;;3.66;60.96
41062;BME280;26812;42.662;23.352;2023-11-19T07:31:35;95053.22;;;3.41;61.51
41062;BME280;26812;42.662;23.352;2023-11-19T07:34:07;95070.00;;;3.41;62.57
41062;BME280;26812;42.662;23.352;2023-11-19T07:36:34;95071.59;;;3.53;61.68
41062;BME280;26812;42.662;23.352;2023-11-19T07:39:00;95080.91;;;3.55;61.81
41062;BME280;26812;42.662;23.352;2023-11-19T07:41:25;95069.19;;;3.46;61.51
41062;BME280;26812;42.662;23.352;2023-11-19T07:43:51;95074.78;;;3.45;61.52
41062;BME280;26812;42.662;23.352;2023-11-19T07:46:18;95078.44;;;3.94;61.54
41062;BME280;26812;42.662;23.352;2023-11-19T07:48:46;95064.13;;;3.50;60.33
41062;BME280;26812;42.662;23.352;2023-11-19T07:51:12;95074.78;;;3.50;62.26
41062;BME280;26812;42.662;23.352;2023-11-19T07:53:38;95057.75;;;3.40;60.97
41062;BME280;26812;42.662;23.352;2023-11-19T07:56:05;95082.22;;;3.68;60.39
41062;BME280;26812;42.662;23.352;2023-11-19T07:58:30;95085.88;;;4.08;60.04
41062;BME280;26812;42.662;23.352;2023-11-19T08:00:56;95075.06;;;3.43;60.75
41062;BME280;26812;42.662;23.352;2023-11-19T08:03:21;95078.47;;;3.64;61.34
41062;BME280;26812;42.662;23.352;2023-11-19T08:05:47;95088.56;;;3.92;59.82
41062;BME280;26812;42.662;23.352;2023-11-19T08:08:13;95100.88;;;3.73;59.87
41062;BME280;26812;42.662;23.352;2023-11-19T08:10:38;95091.50;;;3.86;59.60
41062;BME280;26812;42.662;23.352;2023-11-19T08:13:05;95101.94;;;3.77;58.93
41062;BME280;26812;42.662;23.352;2023-11-19T08:15:31;95088.66;;;3.41;60.67
41062;BME280;26812;42.662;23.352;2023-11-19T08:17:56;95064.69;;;3.11;60.49
41062;BME280;26812;42.662;23.352;2023-11-19T08:20:22;95096.88;;;3.25;61.49
41062;BME280;26812;42.662;23.352;2023-11-19T08:22:48;95091.28;;;3.36;60.72
41062;BME280;26812;42.662;23.352;2023-11-19T08:25:13;95084.91;;;3.32;60.85
41062;BME280;26812;42.662;23.352;2023-11-19T08:27:39;95067.31;;;3.36;60.63
41062;BME280;26812;42.662;23.352;2023-11-19T08:30:05;95109.13;;;3.66;60.59
41062;BME280;26812;42.662;23.352;2023-11-19T08:32:31;95107.22;;;3.92;60.30
41062;BME280;26812;42.662;23.352;2023-11-19T08:34:57;95071.91;;;4.26;59.22
41062;BME280;26812;42.662;23.352;2023-11-19T08:37:22;95105.94;;;4.64;58.72
41062;BME280;26812;42.662;23.352;2023-11-19T08:39:48;95112.38;;;4.48;65.14
41062;BME280;26812;42.662;23.352;2023-11-19T08:42:14;95114.63;;;6.45;66.57
41062;BME280;26812;42.662;23.352;2023-11-19T08:44:39;95112.66;;;6.03;55.54
41062;BME280;26812;42.662;23.352;2023-11-19T08:47:08;95104.56;;;5.79;54.20
41062;BME280;26812;42.662;23.352;2023-11-19T08:49:34;95096.31;;;4.58;57.79
41062;BME280;26812;42.662;23.352;2023-11-19T08:52:00;95094.41;;;4.10;57.86
41062;BME280;26812;42.662;23.352;2023-11-19T08:54:25;95091.78;;;3.84;59.23
41062;BME280;26812;42.662;23.352;2023-11-19T08:56:50;95118.66;;;3.98;59.00
41062;BME280;26812;42.662;23.352;2023-11-19T08:59:16;95119.47;;;4.03;58.81
41062;BME280;26812;42.662;23.352;2023-11-19T09:01:41;95111.00;;;3.71;59.16
41062;BME280;26812;42.662;23.352;2023-11-19T09:04:07;95098.13;;;4.09;57.58
41062;BME280;26812;42.662;23.352;2023-11-19T09:06:33;95104.00;;;4.05;58.19
41062;BME280;26812;42.662;23.352;2023-11-19T09:08:58;95079.03;;;4.51;56.36
41062;BME280;26812;42.662;23.352;2023-11-19T09:11:27;95083.16;;;5.55;55.25
41062;BME280;26812;42.662;23.352;2023-11-19T09:13:53;95087.13;;;7.01;51.29
41062;BME280;26812;42.662;23.352;2023-11-19T09:16:18;95078.66;;;8.10;48.94
41062;BME280;26812;42.662;23.352;2023-11-19T09:18:45;95076.00;;;8.52;45.41
41062;BME280;26812;42.662;23.352;2023-11-19T09:21:14;95090.41;;;6.08;49.93
41062;BME280;26812;42.662;23.352;2023-11-19T09:23:40;95089.06;;;5.47;52.45
41062;BME280;26812;42.662;23.352;2023-11-19T09:26:08;95102.03;;;4.96;53.85
41062;BME280;26812;42.662;23.352;2023-11-19T09:28:35;95088.47;;;4.33;55.48
41062;BME280;26812;42.662;23.352;2023-11-19T09:31:01;95107.72;;;5.23;55.24
41062;BME280;26812;42.662;23.352;2023-11-19T09:33:31;95101.94;;;5.06;53.96
41062;BME280;26812;42.662;23.352;2023-11-19T09:36:03;95092.53;;;5.53;52.92
41062;BME280;26812;42.662;23.352;2023-11-19T09:38:28;95068.66;;;6.38;51.23
41062;BME280;26812;42.662;23.352;2023-11-19T09:40:55;95051.72;;;6.24;51.95
41062;BME280;26812;42.662;23.352;2023-11-19T09:43:29;95050.97;;;5.95;51.33
41062;BME280;26812;42.662;23.352;2023-11-19T09:46:08;95048.44;;;5.21;53.64
41062;BME280;26812;42.662;23.352;2023-11-19T09:48:38;95062.06;;;5.49;53.18
41062;BME280;26812;42.662;23.352;2023-11-19T09:51:07;95049.19;;;5.27;54.31
41062;BME280;26812;42.662;23.352;2023-11-19T09:53:33;95001.19;;;5.46;53.29
41062;BME280;26812;42.662;23.352;2023-11-19T09:56:00;95010.03;;;5.70;52.47
41062;BME280;26812;42.662;23.352;2023-11-19T09:58:26;95027.59;;;5.23;53.15
41062;BME280;26812;42.662;23.352;2023-11-19T10:00:51;95053.91;;;4.57;55.39
41062;BME280;26812;42.662;23.352;2023-11-19T10:03:17;95036.34;;;4.95;55.37
41062;BME280;26812;42.662;23.352;2023-11-19T10:05:43;95023.19;;;5.04;54.28
41062;BME280;26812;42.662;23.352;2023-11-19T10:08:09;95040.00;;;5.38;53.72
41062;BME280;26812;42.662;23.352;2023-11-19T10:10:36;95016.78;;;5.91;53.99
41062;BME280;26812;42.662;23.352;2023-11-19T10:13:01;95042.50;;;7.29;49.28
41062;BME280;26812;42.662;23.352;2023-11-19T10:15:27;95006.41;;;8.14;48.02
41062;BME280;26812;42.662;23.352;2023-11-19T10:17:56;95025.59;;;9.96;44.40
41062;BME280;26812;42.662;23.352;2023-11-19T10:20:22;95027.19;;;8.86;43.27
41062;BME280;26812;42.662;23.352;2023-11-19T10:22:47;95006.94;;;7.56;46.18
41062;BME280;26812;42.662;23.352;2023-11-19T10:25:24;95046.31;;;7.74;46.33
41062;BME280;26812;42.662;23.352;2023-11-19T10:27:50;95017.84;;;7.60;46.72
41062;BME280;26812;42.662;23.352;2023-11-19T10:30:26;95027.63;;;7.04;48.02
41062;BME280;26812;42.662;23.352;2023-11-19T10:33:07;95005.75;;;5.98;50.35
41062;BME280;26812;42.662;23.352;2023-11-19T10:35:34;95017.25;;;5.70;52.45
41062;BME280;26812;42.662;23.352;2023-11-19T10:38:01;95006.16;;;6.29;52.04
41062;BME280;26812;42.662;23.352;2023-11-19T10:40:39;95010.09;;;7.44;48.29
41062;BME280;26812;42.662;23.352;2023-11-19T10:43:05;94996.09;;;9.07;44.03
41062;BME280;26812;42.662;23.352;2023-11-19T10:45:37;95021.13;;;9.83;42.33
41062;BME280;26812;42.662;23.352;2023-11-19T10:48:06;95011.81;;;10.20;41.44
41062;BME280;26812;42.662;23.352;2023-11-19T10:50:37;95012.91;;;9.57;42.60
41062;BME280;26812;42.662;23.352;2023-11-19T10:53:04;95021.47;;;7.69;44.85
41062;BME280;26812;42.662;23.352;2023-11-19T10:55:31;95004.91;;;6.83;48.13
41062;BME280;26812;42.662;23.352;2023-11-19T10:58:02;95015.59;;;6.64;49.69
41062;BME280;26812;42.662;23.352;2023-11-19T11:00:29;94986.44;;;6.81;49.08
41062;BME280;26812;42.662;23.352;2023-11-19T11:03:01;95007.13;;;5.96;51.68
41062;BME280;26812;42.662;23.352;2023-11-19T11:05:29;94990.09;;;7.69;49.00
41062;BME280;26812;42.662;23.352;2023-11-19T11:07:58;94982.81;;;9.55;44.35
41062;BME280;26812;42.662;23.352;2023-11-19T11:10:26;94984.00;;;10.68;39.89
41062;BME280;26812;42.662;23.352;2023-11-19T11:12:52;94975.97;;;10.77;39.19
41062;BME280;26812;42.662;23.352;2023-11-19T11:15:29;94975.16;;;11.11;38.12
41062;BME280;26812;42.662;23.352;2023-11-19T11:17:59;94969.28;;;12.37;36.83
41062;BME280;26812;42.662;23.352;2023-11-19T11:20:30;94962.03;;;12.29;35.35
41062;BME280;26812;42.662;23.352;2023-11-19T11:25:52;94970.56;;;10.85;37.22
41062;BME280;26812;42.662;23.352;2023-11-19T11:28:33;94979.72;;;10.41;39.74
41062;BME280;26812;42.662;23.352;2023-11-19T11:34:34;94977.31;;;11.61;36.23
41062;BME280;26812;42.662;23.352;2023-11-19T11:37:18;94996.09;;;11.23;38.34
41062;BME280;26812;42.662;23.352;2023-11-19T11:39:46;94974.25;;;11.97;35.80
41062;BME280;26812;42.662;23.352;2023-11-19T11:50:17;94943.69;;;14.94;31.30
41062;BME280;26812;42.662;23.352;2023-11-19T11:55:27;94950.03;;;16.44;29.28
41062;BME280;26812;42.662;23.352;2023-11-19T11:57:54;94941.50;;;18.88;26.36
41062;BME280;26812;42.662;23.352;2023-11-19T12:02:55;94951.00;;;20.36;23.31
41062;BME280;26812;42.662;23.352;2023-11-19T12:05:27;94947.38;;;21.31;22.18
41062;BME280;26812;42.662;23.352;2023-11-19T12:08:06;94952.59;;;18.27;25.37
41062;BME280;26812;42.662;23.352;2023-11-19T12:10:46;94944.97;;;15.52;28.25
41062;BME280;26812;42.662;23.352;2023-11-19T12:13:16;94935.81;;;17.02;27.71
41062;BME280;26812;42.662;23.352;2023-11-19T12:18:24;94946.00;;;19.34;24.58
41062;BME280;26812;42.662;23.352;2023-11-19T12:20:51;94922.78;;;18.38;25.47
41062;BME280;26812;42.662;23.352;2023-11-19T12:23:17;94923.66;;;21.70;22.36
41062;BME280;26812;42.662;23.352;2023-11-19T12:25:42;94918.56;;;18.17;24.94
41062;BME280;26812;42.662;23.352;2023-11-19T12:28:13;94907.28;;;17.54;26.60
41062;BME280;26812;42.662;23.352;2023-11-19T12:30:39;94907.16;;;20.29;22.92
41062;BME280;26812;42.662;23.352;2023-11-19T12:33:08;94906.91;;;22.29;21.29
41062;BME280;26812;42.662;23.352;2023-11-19T12:35:41;94902.75;;;24.76;19.21
41062;BME280;26812;42.662;23.352;2023-11-19T12:38:07;94906.34;;;26.40;17.20
41062;BME280;26812;42.662;23.352;2023-11-19T12:40:32;94887.53;;;26.04;17.54
41062;BME280;26812;42.662;23.352;2023-11-19T12:42:58;94889.09;;;25.41;17.39
41062;BME280;26812;42.662;23.352;2023-11-19T12:45:36;94892.25;;;24.64;18.48
41062;BME280;26812;42.662;23.352;2023-11-19T12:48:07;94892.28;;;25.39;17.85
41062;BME280;26812;42.662;23.352;2023-11-19T12:50:55;94893.75;;;23.61;18.96
41062;BME280;26812;42.662;23.352;2023-11-19T12:53:24;94890.06;;;22.34;20.44
41062;BME280;26812;42.662;23.352;2023-11-19T12:55:51;94881.59;;;17.97;25.26
41062;BME280;26812;42.662;23.352;2023-11-19T12:58:34;94875.03;;;18.24;25.60
41062;BME280;26812;42.662;23.352;2023-11-19T13:01:01;94873.16;;;20.26;23.04
41062;BME280;26812;42.662;23.352;2023-11-19T13:03:31;94869.56;;;21.50;21.85
41062;BME280;26812;42.662;23.352;2023-11-19T13:08:35;94872.78;;;23.81;19.37
41062;BME280;26812;42.662;23.352;2023-11-19T13:11:03;94871.97;;;23.01;20.23
41062;BME280;26812;42.662;23.352;2023-11-19T13:13:28;94873.13;;;24.46;18.98
41062;BME280;26812;42.662;23.352;2023-11-19T13:16:01;94875.94;;;22.04;21.12
41062;BME280;26812;42.662;23.352;2023-11-19T13:18:28;94869.53;;;19.34;23.50
41062;BME280;26812;42.662;23.352;2023-11-19T13:20:53;94874.03;;;17.87;25.51